NFNA

Details ICAO NFNA (SUV)
Name Nausori Intl
Region Fiji and Tonga
Timezone Pacific/Fiji (UTC+13.0)
Plans Departing 37
Arriving 33
Stats Elevation 17 ft / 5 m (AMSL)
Location -18.043328° 178.559247°
Runways 1
Magnetic Variation 12.528° E
Sunrise 2017-12-18 17:27:41 UTC / 2017-12-19 06:27:41 Local
Sunset 2017-12-19 06:40:15 UTC / 2017-12-19 19:40:15 Local
Advertisement - Login to hide

Runways

ID Width Length Bearing (true) Bearing (mag) Surface Threshold Offset Overrun Length
10 98 ft / 30 m 6,130 ft / 1,869 m 109.30° 96.77° Asphalt 404 ft / 123 m 0 ft / 0 m
28 98 ft / 30 m 6,130 ft / 1,869 m 289.30° 276.77° Asphalt 0 ft / 0 m 295 ft / 90 m

Map

Weather


0- 5 10 15 20 25 30 35+ Temperature / ° C

Clouds and Precipitation
Forecast for 2017-12-18 18:00 UTC. Updated 10 minutes ago

Ground ~20,000 ft ~40,000 ft Winds

METAR

NFNA 181300Z 00000KT 9999 -SHRA BKN018 BKN045 23/22 Q1006

TAF

TAF NFNA 181132Z 1812/1912 13011KT 9999 SCT018 BKN030 PROB30 TEMPO 1812/1806 5000 TSRA BKN015 FEW018CB

Frequencies

Recorded 128.50 MHz TRML INFO
Approach 119.70 MHz APP
Tower 119.70 MHz TWR
Warning: Do not use this data for real-world aviation or navigation. No guarantee of current accuracy is given.